sensor_id;sensor_type;location;lat;lon;timestamp;pressure;altitude;pressure_sealevel;temperature;humidity
18819;BME280;9537;45.594;9.294;2022-11-12T00:00:44;101426.16;;;10.31;100.00
18819;BME280;9537;45.594;9.294;2022-11-12T00:01:45;101425.31;;;10.30;100.00
18819;BME280;9537;45.594;9.294;2022-11-12T00:02:47;101419.06;;;10.31;100.00
18819;BME280;9537;45.594;9.294;2022-11-12T00:03:48;101417.97;;;10.34;100.00
18819;BME280;9537;45.594;9.294;2022-11-12T00:04:51;101415.44;;;10.32;100.00
18819;BME280;9537;45.594;9.294;2022-11-12T00:05:52;101420.47;;;10.35;100.00
18819;BME280;9537;45.594;9.294;2022-11-12T00:06:54;101423.97;;;10.36;100.00
18819;BME280;9537;45.594;9.294;2022-11-12T00:07:56;101417.84;;;10.35;100.00
18819;BME280;9537;45.594;9.294;2022-11-12T00:08:58;101419.63;;;10.35;100.00
18819;BME280;9537;45.594;9.294;2022-11-12T00:09:59;101421.34;;;10.36;100.00
18819;BME280;9537;45.594;9.294;2022-11-12T00:11:01;101416.06;;;10.36;100.00
18819;BME280;9537;45.594;9.294;2022-11-12T00:12:04;101407.97;;;10.37;100.00
18819;BME280;9537;45.594;9.294;2022-11-12T00:13:06;101413.41;;;10.36;100.00
18819;BME280;9537;45.594;9.294;2022-11-12T00:14:07;101408.97;;;10.36;100.00
18819;BME280;9537;45.594;9.294;2022-11-12T00:15:10;101410.63;;;10.37;100.00
18819;BME280;9537;45.594;9.294;2022-11-12T00:16:11;101412.44;;;10.37;100.00
18819;BME280;9537;45.594;9.294;2022-11-12T00:17:13;101413.16;;;10.39;100.00
18819;BME280;9537;45.594;9.294;2022-11-12T00:18:14;101401.59;;;10.40;100.00
18819;BME280;9537;45.594;9.294;2022-11-12T00:19:16;101398.97;;;10.40;100.00
18819;BME280;9537;45.594;9.294;2022-11-12T00:20:18;101402.44;;;10.41;100.00
18819;BME280;9537;45.594;9.294;2022-11-12T00:21:19;101400.88;;;10.38;100.00
18819;BME280;9537;45.594;9.294;2022-11-12T00:22:20;101406.91;;;10.40;100.00
18819;BME280;9537;45.594;9.294;2022-11-12T00:23:24;101409.53;;;10.40;100.00
18819;BME280;9537;45.594;9.294;2022-11-12T00:24:25;101405.22;;;10.39;100.00
18819;BME280;9537;45.594;9.294;2022-11-12T00:25:27;101402.44;;;10.41;100.00
18819;BME280;9537;45.594;9.294;2022-11-12T00:26:28;101401.50;;;10.42;100.00
18819;BME280;9537;45.594;9.294;2022-11-12T00:27:30;101402.31;;;10.42;100.00
18819;BME280;9537;45.594;9.294;2022-11-12T00:28:31;101399.53;;;10.44;100.00
18819;BME280;9537;45.594;9.294;2022-11-12T00:29:34;101404.81;;;10.44;100.00
18819;BME280;9537;45.594;9.294;2022-11-12T00:30:37;101397.50;;;10.47;100.00
18819;BME280;9537;45.594;9.294;2022-11-12T00:31:40;101399.16;;;10.48;100.00
18819;BME280;9537;45.594;9.294;2022-11-12T00:32:41;101397.34;;;10.49;100.00
18819;BME280;9537;45.594;9.294;2022-11-12T00:33:43;101397.34;;;10.49;100.00
18819;BME280;9537;45.594;9.294;2022-11-12T00:34:44;101398.06;;;10.51;100.00
18819;BME280;9537;45.594;9.294;2022-11-12T00:35:46;101387.50;;;10.51;100.00
18819;BME280;9537;45.594;9.294;2022-11-12T00:36:48;101390.81;;;10.53;100.00
18819;BME280;9537;45.594;9.294;2022-11-12T00:37:53;101387.25;;;10.54;100.00
18819;BME280;9537;45.594;9.294;2022-11-12T00:38:56;101386.41;;;10.53;100.00
18819;BME280;9537;45.594;9.294;2022-11-12T00:39:57;101382.78;;;10.54;100.00
18819;BME280;9537;45.594;9.294;2022-11-12T00:40:59;101387.25;;;10.54;100.00
18819;BME280;9537;45.594;9.294;2022-11-12T00:42:00;101386.16;;;10.56;100.00
18819;BME280;9537;45.594;9.294;2022-11-12T00:43:01;101387.09;;;10.55;100.00
18819;BME280;9537;45.594;9.294;2022-11-12T00:44:04;101381.13;;;10.53;100.00
18819;BME280;9537;45.594;9.294;2022-11-12T00:45:06;101383.63;;;10.55;100.00
18819;BME280;9537;45.594;9.294;2022-11-12T00:46:09;101385.31;;;10.56;100.00
18819;BME280;9537;45.594;9.294;2022-11-12T00:47:10;101385.31;;;10.56;100.00
18819;BME280;9537;45.594;9.294;2022-11-12T00:48:12;101392.53;;;10.54;100.00
18819;BME280;9537;45.594;9.294;2022-11-12T00:49:12;101374.75;;;10.56;100.00
18819;BME280;9537;45.594;9.294;2022-11-12T00:50:15;101383.50;;;10.56;100.00
18819;BME280;9537;45.594;9.294;2022-11-12T00:51:16;101377.38;;;10.56;100.00
18819;BME280;9537;45.594;9.294;2022-11-12T00:52:18;101381.53;;;10.58;100.00
18819;BME280;9537;45.594;9.294;2022-11-12T00:53:19;101377.25;;;10.57;100.00
18819;BME280;9537;45.594;9.294;2022-11-12T00:54:22;101370.28;;;10.56;100.00
18819;BME280;9537;45.594;9.294;2022-11-12T00:55:24;101378.91;;;10.58;100.00
18819;BME280;9537;45.594;9.294;2022-11-12T00:56:25;101377.13;;;10.59;100.00
18819;BME280;9537;45.594;9.294;2022-11-12T00:57:26;101374.22;;;10.62;100.00
18819;BME280;9537;45.594;9.294;2022-11-12T00:58:29;101378.78;;;10.60;100.00
18819;BME280;9537;45.594;9.294;2022-11-12T00:59:30;101377.69;;;10.63;100.00
18819;BME280;9537;45.594;9.294;2022-11-12T01:00:32;101371.44;;;10.64;100.00
18819;BME280;9537;45.594;9.294;2022-11-12T01:01:33;101368.66;;;10.65;100.00
18819;BME280;9537;45.594;9.294;2022-11-12T01:02:36;101366.16;;;10.64;100.00
18819;BME280;9537;45.594;9.294;2022-11-12T01:03:38;101366.16;;;10.64;100.00
18819;BME280;9537;45.594;9.294;2022-11-12T01:04:41;101365.31;;;10.63;100.00
18819;BME280;9537;45.594;9.294;2022-11-12T01:05:42;101371.69;;;10.60;100.00
18819;BME280;9537;45.594;9.294;2022-11-12T01:06:44;101368.34;;;10.58;100.00
18819;BME280;9537;45.594;9.294;2022-11-12T01:07:45;101368.22;;;10.60;100.00
18819;BME280;9537;45.594;9.294;2022-11-12T01:08:48;101366.56;;;10.59;100.00
18819;BME280;9537;45.594;9.294;2022-11-12T01:09:51;101365.69;;;10.58;100.00
18819;BME280;9537;45.594;9.294;2022-11-12T01:10:53;101364.75;;;10.59;100.00
18819;BME280;9537;45.594;9.294;2022-11-12T01:11:55;101361.28;;;10.59;100.00
18819;BME280;9537;45.594;9.294;2022-11-12T01:14:35;101356.81;;;10.59;100.00
18819;BME280;9537;45.594;9.294;2022-11-12T01:15:40;101361.97;;;10.61;100.00
18819;BME280;9537;45.594;9.294;2022-11-12T01:16:41;101363.66;;;10.62;100.00
18819;BME280;9537;45.594;9.294;2022-11-12T01:17:44;101354.19;;;10.59;100.00
18819;BME280;9537;45.594;9.294;2022-11-12T01:18:46;101358.75;;;10.57;100.00
18819;BME280;9537;45.594;9.294;2022-11-12T01:19:48;101355.00;;;10.60;100.00
18819;BME280;9537;45.594;9.294;2022-11-12T01:20:49;101355.00;;;10.60;100.00
18819;BME280;9537;45.594;9.294;2022-11-12T01:21:51;101354.03;;;10.61;100.00
18819;BME280;9537;45.594;9.294;2022-11-12T01:22:52;101345.41;;;10.59;100.00
18819;BME280;9537;45.594;9.294;2022-11-12T01:23:56;101347.09;;;10.60;100.00
18819;BME280;9537;45.594;9.294;2022-11-12T01:24:58;101344.44;;;10.60;100.00
18819;BME280;9537;45.594;9.294;2022-11-12T01:26:03;101343.72;;;10.58;100.00
18819;BME280;9537;45.594;9.294;2022-11-12T01:27:04;101347.34;;;10.57;100.00
18819;BME280;9537;45.594;9.294;2022-11-12T01:28:06;101341.34;;;10.55;100.00
18819;BME280;9537;45.594;9.294;2022-11-12T01:29:07;101339.69;;;10.54;100.00
18819;BME280;9537;45.594;9.294;2022-11-12T01:30:10;101343.28;;;10.53;100.00
18819;BME280;9537;45.594;9.294;2022-11-12T01:31:13;101335.34;;;10.53;100.00
18819;BME280;9537;45.594;9.294;2022-11-12T01:32:16;101333.84;;;10.50;100.00
18819;BME280;9537;45.594;9.294;2022-11-12T01:33:17;101334.66;;;10.51;100.00
18819;BME280;9537;45.594;9.294;2022-11-12T01:34:19;101333.69;;;10.52;100.00
18819;BME280;9537;45.594;9.294;2022-11-12T01:35:20;101339.94;;;10.51;100.00
18819;BME280;9537;45.594;9.294;2022-11-12T01:36:23;101335.50;;;10.51;100.00
18819;BME280;9537;45.594;9.294;2022-11-12T01:37:24;101336.31;;;10.52;100.00
18819;BME280;9537;45.594;9.294;2022-11-12T01:38:26;101337.16;;;10.52;100.00
18819;BME280;9537;45.594;9.294;2022-11-12T01:39:27;101335.13;;;10.56;100.00
18819;BME280;9537;45.594;9.294;2022-11-12T01:40:32;101327.41;;;10.53;100.00
18819;BME280;9537;45.594;9.294;2022-11-12T01:41:36;101327.41;;;10.53;100.00
18819;BME280;9537;45.594;9.294;2022-11-12T01:42:38;101321.19;;;10.54;100.00
18819;BME280;9537;45.594;9.294;2022-11-12T01:43:39;101320.47;;;10.52;100.00
18819;BME280;9537;45.594;9.294;2022-11-12T01:44:43;101318.94;;;10.49;100.00
18819;BME280;9537;45.594;9.294;2022-11-12T01:45:48;101317.38;;;10.47;100.00
18819;BME280;9537;45.594;9.294;2022-11-12T01:46:58;101316.56;;;10.46;100.00
18819;BME280;9537;45.594;9.294;2022-11-12T01:48:01;101316.56;;;10.46;100.00
18819;BME280;9537;45.594;9.294;2022-11-12T01:49:05;101320.03;;;10.47;100.00
18819;BME280;9537;45.594;9.294;2022-11-12T01:50:15;101312.25;;;10.45;100.00
18819;BME280;9537;45.594;9.294;2022-11-12T01:51:19;101315.84;;;10.44;100.00
18819;BME280;9537;45.594;9.294;2022-11-12T01:52:24;101316.00;;;10.43;100.00
18819;BME280;9537;45.594;9.294;2022-11-12T01:53:32;101316.25;;;10.40;100.00
18819;BME280;9537;45.594;9.294;2022-11-12T01:54:35;101317.09;;;10.40;100.00
18819;BME280;9537;45.594;9.294;2022-11-12T01:55:39;101317.91;;;10.41;100.00
18819;BME280;9537;45.594;9.294;2022-11-12T01:56:40;101316.25;;;10.40;100.00
18819;BME280;9537;45.594;9.294;2022-11-12T01:57:46;101318.06;;;10.39;100.00
18819;BME280;9537;45.594;9.294;2022-11-12T01:58:52;101316.38;;;10.38;100.00
18819;BME280;9537;45.594;9.294;2022-11-12T02:00:00;101314.81;;;10.35;100.00
18819;BME280;9537;45.594;9.294;2022-11-12T02:01:02;101319.28;;;10.35;100.00
18819;BME280;9537;45.594;9.294;2022-11-12T02:02:04;101313.88;;;10.36;100.00
18819;BME280;9537;45.594;9.294;2022-11-12T02:03:11;101313.88;;;10.36;100.00
18819;BME280;9537;45.594;9.294;2022-11-12T02:04:14;101311.22;;;10.36;100.00
18819;BME280;9537;45.594;9.294;2022-11-12T02:05:16;101319.16;;;10.36;100.00
18819;BME280;9537;45.594;9.294;2022-11-12T02:06:19;101312.19;;;10.35;100.00
18819;BME280;9537;45.594;9.294;2022-11-12T02:07:21;101315.69;;;10.36;100.00
18819;BME280;9537;45.594;9.294;2022-11-12T02:08:24;101313.72;;;10.38;100.00
18819;BME280;9537;45.594;9.294;2022-11-12T02:09:27;101320.72;;;10.39;100.00
18819;BME280;9537;45.594;9.294;2022-11-12T02:10:30;101322.47;;;10.38;100.00
18819;BME280;9537;45.594;9.294;2022-11-12T02:11:32;101312.91;;;10.37;100.00
18819;BME280;9537;45.594;9.294;2022-11-12T02:12:35;101319.00;;;10.38;100.00
18819;BME280;9537;45.594;9.294;2022-11-12T02:13:54;101309.44;;;10.37;100.00
18819;BME280;9537;45.594;9.294;2022-11-12T02:14:57;101308.59;;;10.36;100.00
18819;BME280;9537;45.594;9.294;2022-11-12T02:15:59;101308.72;;;10.35;100.00
18819;BME280;9537;45.594;9.294;2022-11-12T02:17:01;101309.53;;;10.35;100.00
18819;BME280;9537;45.594;9.294;2022-11-12T02:18:02;101307.88;;;10.34;100.00
18819;BME280;9537;45.594;9.294;2022-11-12T02:19:06;101303.69;;;10.32;100.00
18819;BME280;9537;45.594;9.294;2022-11-12T02:20:08;101307.16;;;10.32;100.00
18819;BME280;9537;45.594;9.294;2022-11-12T02:21:11;101302.88;;;10.31;100.00
18819;BME280;9537;45.594;9.294;2022-11-12T02:22:13;101301.19;;;10.30;100.00
18819;BME280;9537;45.594;9.294;2022-11-12T02:23:15;101301.47;;;10.27;100.00
18819;BME280;9537;45.594;9.294;2022-11-12T02:24:34;101297.84;;;10.28;100.00
18819;BME280;9537;45.594;9.294;2022-11-12T02:25:37;101301.66;;;10.24;100.00
18819;BME280;9537;45.594;9.294;2022-11-12T02:26:41;101298.34;;;10.22;100.00
18819;BME280;9537;45.594;9.294;2022-11-12T02:27:46;101301.25;;;10.19;100.00
18819;BME280;9537;45.594;9.294;2022-11-12T02:28:51;101303.16;;;10.17;100.00
18819;BME280;9537;45.594;9.294;2022-11-12T02:29:53;101300.91;;;10.12;100.00
18819;BME280;9537;45.594;9.294;2022-11-12T02:30:54;101306.31;;;10.11;100.00
18819;BME280;9537;45.594;9.294;2022-11-12T02:31:56;101308.25;;;10.09;100.00
18819;BME280;9537;45.594;9.294;2022-11-12T02:32:57;101303.94;;;10.08;100.00
18819;BME280;9537;45.594;9.294;2022-11-12T02:33:59;101302.13;;;10.08;100.00
18819;BME280;9537;45.594;9.294;2022-11-12T02:35:01;101298.78;;;10.06;100.00
18819;BME280;9537;45.594;9.294;2022-11-12T02:36:03;101305.03;;;10.05;100.00
18819;BME280;9537;45.594;9.294;2022-11-12T02:37:04;101299.75;;;10.05;100.00
18819;BME280;9537;45.594;9.294;2022-11-12T02:38:08;101297.13;;;10.05;100.00
18819;BME280;9537;45.594;9.294;2022-11-12T02:39:09;101306.84;;;10.05;100.00
18819;BME280;9537;45.594;9.294;2022-11-12T02:40:11;101305.03;;;10.05;100.00
18819;BME280;9537;45.594;9.294;2022-11-12T02:41:12;101300.28;;;9.99;100.00
18819;BME280;9537;45.594;9.294;2022-11-12T02:42:14;101295.84;;;10.00;100.00
18819;BME280;9537;45.594;9.294;2022-11-12T02:43:15;101296.81;;;9.99;100.00
18819;BME280;9537;45.594;9.294;2022-11-12T02:44:17;101303.75;;;10.00;100.00
18819;BME280;9537;45.594;9.294;2022-11-12T02:45:18;101300.66;;;9.95;100.00
18819;BME280;9537;45.594;9.294;2022-11-12T02:46:21;101305.94;;;9.95;100.00
18819;BME280;9537;45.594;9.294;2022-11-12T02:47:22;101296.09;;;9.97;100.00
18819;BME280;9537;45.594;9.294;2022-11-12T02:48:24;101294.28;;;9.97;100.00
18819;BME280;9537;45.594;9.294;2022-11-12T02:49:25;101289.25;;;9.94;100.00
18819;BME280;9537;45.594;9.294;2022-11-12T02:50:26;101295.53;;;9.93;100.00
18819;BME280;9537;45.594;9.294;2022-11-12T02:51:28;101293.97;;;9.90;100.00
18819;BME280;9537;45.594;9.294;2022-11-12T02:52:30;101284.25;;;9.91;100.00
18819;BME280;9537;45.594;9.294;2022-11-12T02:53:33;101294.50;;;9.84;100.00
18819;BME280;9537;45.594;9.294;2022-11-12T02:54:35;101289.22;;;9.84;100.00
18819;BME280;9537;45.594;9.294;2022-11-12T02:55:36;101292.06;;;9.81;100.00
18819;BME280;9537;45.594;9.294;2022-11-12T02:56:38;101283.72;;;9.76;100.00
18819;BME280;9537;45.594;9.294;2022-11-12T02:57:40;101284.94;;;9.72;100.00
18819;BME280;9537;45.594;9.294;2022-11-12T02:58:42;101291.03;;;9.73;100.00
18819;BME280;9537;45.594;9.294;2022-11-12T02:59:43;101286.88;;;9.70;100.00
18819;BME280;9537;45.594;9.294;2022-11-12T03:00:45;101283.28;;;9.71;100.00
18819;BME280;9537;45.594;9.294;2022-11-12T03:01:47;101280.06;;;9.67;100.00
18819;BME280;9537;45.594;9.294;2022-11-12T03:02:49;101283.53;;;9.68;100.00
18819;BME280;9537;45.594;9.294;2022-11-12T03:03:58;101283.28;;;9.71;100.00
18819;BME280;9537;45.594;9.294;2022-11-12T03:05:01;101280.50;;;9.73;100.00
18819;BME280;9537;45.594;9.294;2022-11-12T03:06:02;101276.06;;;9.73;100.00
18819;BME280;9537;45.594;9.294;2022-11-12T03:07:04;101274.06;;;9.65;100.00
18819;BME280;9537;45.594;9.294;2022-11-12T03:08:06;101274.88;;;9.66;100.00
18819;BME280;9537;45.594;9.294;2022-11-12T03:09:11;101275.59;;;9.68;100.00
18819;BME280;9537;45.594;9.294;2022-11-12T03:10:12;101276.56;;;9.67;100.00
18819;BME280;9537;45.594;9.294;2022-11-12T03:11:16;101276.81;;;9.64;100.00
18819;BME280;9537;45.594;9.294;2022-11-12T03:12:17;101274.78;;;9.67;100.00
18819;BME280;9537;45.594;9.294;2022-11-12T03:13:19;101275.72;;;9.66;100.00
18819;BME280;9537;45.594;9.294;2022-11-12T03:14:20;101275.97;;;9.63;100.00
18819;BME280;9537;45.594;9.294;2022-11-12T03:15:22;101273.34;;;9.63;100.00
18819;BME280;9537;45.594;9.294;2022-11-12T03:16:23;101270.97;;;9.60;100.00
18819;BME280;9537;45.594;9.294;2022-11-12T03:17:25;101269.28;;;9.59;100.00
18819;BME280;9537;45.594;9.294;2022-11-12T03:18:26;101274.56;;;9.59;100.00
18819;BME280;9537;45.594;9.294;2022-11-12T03:19:29;101274.69;;;9.58;100.00
18819;BME280;9537;45.594;9.294;2022-11-12T03:20:30;101272.88;;;9.58;100.00
18819;BME280;9537;45.594;9.294;2022-11-12T03:21:34;101276.13;;;9.62;100.00
18819;BME280;9537;45.594;9.294;2022-11-12T03:22:35;101267.59;;;9.58;100.00
18819;BME280;9537;45.594;9.294;2022-11-12T03:23:38;101266.78;;;9.58;100.00
18819;BME280;9537;45.594;9.294;2022-11-12T03:24:41;101265.09;;;9.57;100.00
18819;BME280;9537;45.594;9.294;2022-11-12T03:25:42;101268.47;;;9.59;100.00
18819;BME280;9537;45.594;9.294;2022-11-12T03:26:44;101268.72;;;9.56;100.00
18819;BME280;9537;45.594;9.294;2022-11-12T03:27:45;101270.50;;;9.55;100.00
18819;BME280;9537;45.594;9.294;2022-11-12T03:28:49;101274.00;;;9.56;100.00
18819;BME280;9537;45.594;9.294;2022-11-12T03:29:50;101275.66;;;9.57;100.00
18819;BME280;9537;45.594;9.294;2022-11-12T03:30:55;101272.88;;;9.58;100.00
18819;BME280;9537;45.594;9.294;2022-11-12T03:31:57;101270.13;;;9.60;100.00
18819;BME280;9537;45.594;9.294;2022-11-12T03:32:59;101264.59;;;9.63;100.00
18819;BME280;9537;45.594;9.294;2022-11-12T03:34:00;101267.34;;;9.61;100.00
18819;BME280;9537;45.594;9.294;2022-11-12T03:35:02;101267.22;;;9.63;100.00
18819;BME280;9537;45.594;9.294;2022-11-12T03:36:03;101268.22;;;9.62;100.00
18819;BME280;9537;45.594;9.294;2022-11-12T03:37:06;101260.41;;;9.60;100.00
18819;BME280;9537;45.594;9.294;2022-11-12T03:38:09;101263.19;;;9.59;99.95
18819;BME280;9537;45.594;9.294;2022-11-12T03:39:10;101262.22;;;9.60;99.07
18819;BME280;9537;45.594;9.294;2022-11-12T03:40:13;101261.75;;;9.55;98.02
18819;BME280;9537;45.594;9.294;2022-11-12T03:41:15;101268.25;;;9.51;97.91
18819;BME280;9537;45.594;9.294;2022-11-12T03:42:16;101269.44;;;9.46;97.75
18819;BME280;9537;45.594;9.294;2022-11-12T03:43:18;101257.50;;;9.42;98.12
18819;BME280;9537;45.594;9.294;2022-11-12T03:44:18;101264.44;;;9.43;98.08
18819;BME280;9537;45.594;9.294;2022-11-12T03:45:22;101265.25;;;9.44;98.37
18819;BME280;9537;45.594;9.294;2022-11-12T03:46:23;101266.38;;;9.41;98.44
18819;BME280;9537;45.594;9.294;2022-11-12T03:47:26;101261.09;;;9.41;98.23
18819;BME280;9537;45.594;9.294;2022-11-12T03:48:27;101255.22;;;9.38;98.21
18819;BME280;9537;45.594;9.294;2022-11-12T03:49:28;101254.53;;;9.36;98.15
18819;BME280;9537;45.594;9.294;2022-11-12T03:50:29;101255.38;;;9.36;98.32
18819;BME280;9537;45.594;9.294;2022-11-12T03:51:31;101251.28;;;9.32;98.52
18819;BME280;9537;45.594;9.294;2022-11-12T03:52:32;101250.84;;;9.27;98.61
18819;BME280;9537;45.594;9.294;2022-11-12T03:53:35;101253.50;;;9.27;98.30
18819;BME280;9537;45.594;9.294;2022-11-12T03:54:35;101251.78;;;9.26;98.00
18819;BME280;9537;45.594;9.294;2022-11-12T03:55:39;101243.16;;;9.24;97.62
18819;BME280;9537;45.594;9.294;2022-11-12T03:56:40;101246.06;;;9.21;97.51
18819;BME280;9537;45.594;9.294;2022-11-12T03:57:43;101250.75;;;9.17;97.72
18819;BME280;9537;45.594;9.294;2022-11-12T03:58:44;101244.66;;;9.17;97.46
18819;BME280;9537;45.594;9.294;2022-11-12T03:59:46;101250.03;;;9.15;97.79
18819;BME280;9537;45.594;9.294;2022-11-12T04:00:47;101245.63;;;9.16;98.01
18819;BME280;9537;45.594;9.294;2022-11-12T04:01:49;101249.44;;;9.12;97.88
18819;BME280;9537;45.594;9.294;2022-11-12T04:02:51;101244.16;;;9.12;97.74
18819;BME280;9537;45.594;9.294;2022-11-12T04:03:53;101245.63;;;9.16;97.93
18819;BME280;9537;45.594;9.294;2022-11-12T04:04:54;101245.38;;;9.19;97.76
18819;BME280;9537;45.594;9.294;2022-11-12T04:06:13;101243.66;;;9.18;98.17
18819;BME280;9537;45.594;9.294;2022-11-12T04:07:33;101247.03;;;9.20;98.41
18819;BME280;9537;45.594;9.294;2022-11-12T04:08:52;101246.06;;;9.21;98.27
18819;BME280;9537;45.594;9.294;2022-11-12T04:09:54;101242.59;;;9.20;98.04
18819;BME280;9537;45.594;9.294;2022-11-12T04:10:56;101242.13;;;9.15;97.49
18819;BME280;9537;45.594;9.294;2022-11-12T04:11:59;101238.66;;;9.15;97.09
18819;BME280;9537;45.594;9.294;2022-11-12T04:13:20;101241.47;;;9.02;96.83
18819;BME280;9537;45.594;9.294;2022-11-12T04:14:31;101246.25;;;8.97;96.87
18819;BME280;9537;45.594;9.294;2022-11-12T04:15:32;101245.19;;;8.99;97.55
18819;BME280;9537;45.594;9.294;2022-11-12T04:16:33;101250.44;;;8.99;97.18
18819;BME280;9537;45.594;9.294;2022-11-12T04:17:52;101241.22;;;8.94;97.33
18819;BME280;9537;45.594;9.294;2022-11-12T04:19:13;101247.34;;;8.94;97.57
18819;BME280;9537;45.594;9.294;2022-11-12T04:20:33;101237.13;;;9.01;96.96
18819;BME280;9537;45.594;9.294;2022-11-12T04:22:08;101242.28;;;9.02;97.17
18819;BME280;9537;45.594;9.294;2022-11-12T04:23:10;101236.19;;;9.02;97.04
18819;BME280;9537;45.594;9.294;2022-11-12T04:24:11;101239.66;;;9.02;97.05
18819;BME280;9537;45.594;9.294;2022-11-12T04:25:32;101234.38;;;9.02;97.04
18819;BME280;9537;45.594;9.294;2022-11-12T04:26:53;101231.03;;;9.00;97.07
18819;BME280;9537;45.594;9.294;2022-11-12T04:27:55;101226.47;;;9.02;97.15
18819;BME280;9537;45.594;9.294;2022-11-12T04:28:55;101223.84;;;9.02;97.27
18819;BME280;9537;45.594;9.294;2022-11-12T04:30:29;101226.34;;;9.04;96.40
18819;BME280;9537;45.594;9.294;2022-11-12T04:31:31;101224.81;;;9.01;96.32
18819;BME280;9537;45.594;9.294;2022-11-12T04:32:34;101226.59;;;9.01;96.16
18819;BME280;9537;45.594;9.294;2022-11-12T04:33:36;101224.44;;;8.95;96.03
18819;BME280;9537;45.594;9.294;2022-11-12T04:34:36;101218.34;;;8.94;95.66
18819;BME280;9537;45.594;9.294;2022-11-12T04:35:37;101218.34;;;8.94;95.69
18819;BME280;9537;45.594;9.294;2022-11-12T04:36:39;101217.63;;;8.92;95.94
18819;BME280;9537;45.594;9.294;2022-11-12T04:37:40;101220.41;;;8.91;96.06
18819;BME280;9537;45.594;9.294;2022-11-12T04:38:45;101222.91;;;8.92;96.14
18819;BME280;9537;45.594;9.294;2022-11-12T04:39:47;101219.56;;;8.90;96.46
18819;BME280;9537;45.594;9.294;2022-11-12T04:40:48;101222.56;;;8.86;96.91
18819;BME280;9537;45.594;9.294;2022-11-12T04:42:09;101224.13;;;8.88;97.02
18819;BME280;9537;45.594;9.294;2022-11-12T04:43:29;101218.59;;;8.91;96.86
18819;BME280;9537;45.594;9.294;2022-11-12T04:44:48;101224.13;;;8.88;96.96
18819;BME280;9537;45.594;9.294;2022-11-12T04:46:03;101225.91;;;8.88;97.06
18819;BME280;9537;45.594;9.294;2022-11-12T04:47:04;101216.06;;;8.90;97.35
18819;BME280;9537;45.594;9.294;2022-11-12T04:48:06;101215.13;;;8.91;97.51
18819;BME280;9537;45.594;9.294;2022-11-12T04:49:07;101218.72;;;8.90;97.16
18819;BME280;9537;45.594;9.294;2022-11-12T04:50:13;101216.22;;;8.88;96.44
18819;BME280;9537;45.594;9.294;2022-11-12T04:51:15;101223.63;;;8.83;96.26
18819;BME280;9537;45.594;9.294;2022-11-12T04:52:34;101228.44;;;8.78;96.37
18819;BME280;9537;45.594;9.294;2022-11-12T04:53:36;101225.69;;;8.79;96.44
18819;BME280;9537;45.594;9.294;2022-11-12T04:54:37;101229.16;;;8.80;96.51
18819;BME280;9537;45.594;9.294;2022-11-12T04:55:39;101234.31;;;8.82;96.44
18819;BME280;9537;45.594;9.294;2022-11-12T04:56:41;101222.91;;;8.81;96.05
18819;BME280;9537;45.594;9.294;2022-11-12T04:57:43;101231.22;;;8.76;96.37
18819;BME280;9537;45.594;9.294;2022-11-12T04:58:45;101233.00;;;8.76;96.70
18819;BME280;9537;45.594;9.294;2022-11-12T04:59:47;101227.03;;;8.74;96.75
18819;BME280;9537;45.594;9.294;2022-11-12T05:00:49;101233.00;;;8.76;97.01
18819;BME280;9537;45.594;9.294;2022-11-12T05:01:51;101227.50;;;8.79;97.01
18819;BME280;9537;45.594;9.294;2022-11-12T05:02:53;101232.75;;;8.79;97.24
18819;BME280;9537;45.594;9.294;2022-11-12T05:03:55;101224.47;;;8.84;97.07
18819;BME280;9537;45.594;9.294;2022-11-12T05:04:56;101229.38;;;8.88;97.17
18819;BME280;9537;45.594;9.294;2022-11-12T05:06:00;101230.34;;;8.87;97.65
18819;BME280;9537;45.594;9.294;2022-11-12T05:07:01;101232.03;;;8.88;97.88
18819;BME280;9537;45.594;9.294;2022-11-12T05:08:03;101227.47;;;8.90;97.77
18819;BME280;9537;45.594;9.294;2022-11-12T05:09:05;101234.50;;;8.90;98.03
18819;BME280;9537;45.594;9.294;2022-11-12T05:10:07;101237.16;;;8.90;98.66
18819;BME280;9537;45.594;9.294;2022-11-12T05:11:09;101223.03;;;8.91;98.95
18819;BME280;9537;45.594;9.294;2022-11-12T05:12:10;101234.50;;;8.90;99.05
18819;BME280;9537;45.594;9.294;2022-11-12T05:13:13;101231.19;;;8.88;99.41
18819;BME280;9537;45.594;9.294;2022-11-12T05:14:14;101228.41;;;8.89;99.60
18819;BME280;9537;45.594;9.294;2022-11-12T05:15:17;101226.50;;;8.91;99.77
18819;BME280;9537;45.594;9.294;2022-11-12T05:16:18;101234.41;;;8.91;99.24
18819;BME280;9537;45.594;9.294;2022-11-12T05:17:20;101235.38;;;8.90;99.46
18819;BME280;9537;45.594;9.294;2022-11-12T05:18:21;101229.97;;;8.92;99.12
18819;BME280;9537;45.594;9.294;2022-11-12T05:19:23;101227.22;;;8.93;99.11
18819;BME280;9537;45.594;9.294;2022-11-12T05:20:24;101231.78;;;8.91;99.00
18819;BME280;9537;45.594;9.294;2022-11-12T05:21:26;101228.31;;;8.91;98.60
18819;BME280;9537;45.594;9.294;2022-11-12T05:22:45;101227.22;;;8.93;97.88
18819;BME280;9537;45.594;9.294;2022-11-12T05:23:48;101219.19;;;8.95;97.88
18819;BME280;9537;45.594;9.294;2022-11-12T05:24:49;101225.41;;;8.94;97.79
18819;BME280;9537;45.594;9.294;2022-11-12T05:25:51;101215.97;;;8.91;97.06
18819;BME280;9537;45.594;9.294;2022-11-12T05:26:52;101221.22;;;8.91;97.07
18819;BME280;9537;45.594;9.294;2022-11-12T05:27:55;101222.19;;;8.90;96.26
18819;BME280;9537;45.594;9.294;2022-11-12T05:28:57;101215.50;;;8.86;95.31
18819;BME280;9537;45.594;9.294;2022-11-12T05:29:59;101211.53;;;8.80;94.87
18819;BME280;9537;45.594;9.294;2022-11-12T05:31:00;101209.16;;;8.77;94.51
18819;BME280;9537;45.594;9.294;2022-11-12T05:32:03;101208.69;;;8.72;94.66
18819;BME280;9537;45.594;9.294;2022-11-12T05:33:04;101212.41;;;8.70;94.64
18819;BME280;9537;45.594;9.294;2022-11-12T05:34:07;101209.06;;;8.68;95.02
18819;BME280;9537;45.594;9.294;2022-11-12T05:35:07;101210.00;;;8.67;95.18
18819;BME280;9537;45.594;9.294;2022-11-12T05:36:09;101207.63;;;8.64;94.74
18819;BME280;9537;45.594;9.294;2022-11-12T05:37:12;101211.81;;;8.66;94.82